sensor_id;sensor_type;location;lat;lon;timestamp;P1;durP1;ratioP1;P2;durP2;ratioP2
41663;SDS011;27353;50.906;7.248;2022-10-26T00:02:17;7.75;;;2.20;;
41663;SDS011;27353;50.906;7.248;2022-10-26T00:04:43;5.60;;;2.10;;
41663;SDS011;27353;50.906;7.248;2022-10-26T00:07:08;5.82;;;2.03;;
41663;SDS011;27353;50.906;7.248;2022-10-26T00:09:34;5.90;;;1.92;;
41663;SDS011;27353;50.906;7.248;2022-10-26T00:12:00;1.63;;;1.48;;
41663;SDS011;27353;50.906;7.248;2022-10-26T00:14:27;3.72;;;2.20;;
41663;SDS011;27353;50.906;7.248;2022-10-26T00:16:53;2.50;;;1.23;;
41663;SDS011;27353;50.906;7.248;2022-10-26T00:19:19;6.15;;;2.70;;
41663;SDS011;27353;50.906;7.248;2022-10-26T00:21:44;6.38;;;2.45;;
41663;SDS011;27353;50.906;7.248;2022-10-26T00:24:10;8.20;;;1.75;;
41663;SDS011;27353;50.906;7.248;2022-10-26T00:26:36;4.20;;;2.25;;
41663;SDS011;27353;50.906;7.248;2022-10-26T00:29:02;5.18;;;1.98;;
41663;SDS011;27353;50.906;7.248;2022-10-26T00:31:28;6.30;;;1.80;;
41663;SDS011;27353;50.906;7.248;2022-10-26T00:33:54;7.00;;;1.70;;
41663;SDS011;27353;50.906;7.248;2022-10-26T00:36:20;2.45;;;1.70;;
41663;SDS011;27353;50.906;7.248;2022-10-26T00:38:47;3.85;;;2.08;;
41663;SDS011;27353;50.906;7.248;2022-10-26T00:41:14;5.15;;;1.88;;
41663;SDS011;27353;50.906;7.248;2022-10-26T00:43:41;10.65;;;2.83;;
41663;SDS011;27353;50.906;7.248;2022-10-26T00:46:08;3.00;;;1.60;;
41663;SDS011;27353;50.906;7.248;2022-10-26T00:48:39;3.85;;;1.83;;
41663;SDS011;27353;50.906;7.248;2022-10-26T00:51:08;5.68;;;2.15;;
41663;SDS011;27353;50.906;7.248;2022-10-26T00:53:42;3.30;;;1.88;;
41663;SDS011;27353;50.906;7.248;2022-10-26T00:56:08;4.22;;;1.92;;
41663;SDS011;27353;50.906;7.248;2022-10-26T00:58:34;6.53;;;2.60;;
41663;SDS011;27353;50.906;7.248;2022-10-26T01:01:00;7.47;;;1.98;;
41663;SDS011;27353;50.906;7.248;2022-10-26T01:03:26;5.03;;;2.42;;
41663;SDS011;27353;50.906;7.248;2022-10-26T01:05:52;7.07;;;2.00;;
41663;SDS011;27353;50.906;7.248;2022-10-26T01:08:21;3.95;;;1.98;;
41663;SDS011;27353;50.906;7.248;2022-10-26T01:10:47;6.88;;;2.17;;
41663;SDS011;27353;50.906;7.248;2022-10-26T01:13:13;5.47;;;2.03;;
41663;SDS011;27353;50.906;7.248;2022-10-26T01:18:12;7.30;;;3.38;;
41663;SDS011;27353;50.906;7.248;2022-10-26T01:20:51;4.78;;;2.60;;
41663;SDS011;27353;50.906;7.248;2022-10-26T01:23:40;3.53;;;1.70;;
41663;SDS011;27353;50.906;7.248;2022-10-26T01:26:26;9.80;;;2.00;;
41663;SDS011;27353;50.906;7.248;2022-10-26T01:34:42;8.65;;;2.92;;
41663;SDS011;27353;50.906;7.248;2022-10-26T01:37:16;2.90;;;2.08;;
41663;SDS011;27353;50.906;7.248;2022-10-26T01:39:52;8.05;;;2.10;;
41663;SDS011;27353;50.906;7.248;2022-10-26T01:42:26;4.22;;;1.85;;
41663;SDS011;27353;50.906;7.248;2022-10-26T01:44:59;8.30;;;2.35;;
41663;SDS011;27353;50.906;7.248;2022-10-26T01:47:29;7.47;;;1.33;;
41663;SDS011;27353;50.906;7.248;2022-10-26T01:49:58;3.58;;;1.88;;
41663;SDS011;27353;50.906;7.248;2022-10-26T01:52:25;11.02;;;2.03;;
41663;SDS011;27353;50.906;7.248;2022-10-26T01:54:58;6.00;;;1.83;;
41663;SDS011;27353;50.906;7.248;2022-10-26T01:57:27;7.57;;;1.85;;
41663;SDS011;27353;50.906;7.248;2022-10-26T02:00:05;5.93;;;2.03;;
41663;SDS011;27353;50.906;7.248;2022-10-26T02:02:42;6.07;;;2.20;;
41663;SDS011;27353;50.906;7.248;2022-10-26T02:05:20;6.40;;;2.05;;
41663;SDS011;27353;50.906;7.248;2022-10-26T02:11:08;6.07;;;1.98;;
41663;SDS011;27353;50.906;7.248;2022-10-26T02:13:51;5.10;;;2.75;;
41663;SDS011;27353;50.906;7.248;2022-10-26T02:16:25;3.38;;;1.63;;
41663;SDS011;27353;50.906;7.248;2022-10-26T02:21:47;10.05;;;3.47;;
41663;SDS011;27353;50.906;7.248;2022-10-26T02:24:18;3.42;;;2.47;;
41663;SDS011;27353;50.906;7.248;2022-10-26T02:26:46;6.65;;;2.75;;
41663;SDS011;27353;50.906;7.248;2022-10-26T02:29:15;4.63;;;1.80;;
41663;SDS011;27353;50.906;7.248;2022-10-26T02:31:43;7.03;;;2.22;;
41663;SDS011;27353;50.906;7.248;2022-10-26T02:34:13;9.48;;;2.40;;
41663;SDS011;27353;50.906;7.248;2022-10-26T02:36:43;26.63;;;3.38;;
41663;SDS011;27353;50.906;7.248;2022-10-26T02:39:11;3.35;;;1.90;;
41663;SDS011;27353;50.906;7.248;2022-10-26T02:41:40;8.05;;;2.38;;
41663;SDS011;27353;50.906;7.248;2022-10-26T02:44:20;8.73;;;2.40;;
41663;SDS011;27353;50.906;7.248;2022-10-26T02:46:53;9.52;;;2.33;;
41663;SDS011;27353;50.906;7.248;2022-10-26T02:49:20;5.35;;;2.22;;
41663;SDS011;27353;50.906;7.248;2022-10-26T02:57:13;4.35;;;2.00;;
41663;SDS011;27353;50.906;7.248;2022-10-26T02:59:43;14.70;;;2.58;;
41663;SDS011;27353;50.906;7.248;2022-10-26T03:02:16;8.67;;;2.00;;
41663;SDS011;27353;50.906;7.248;2022-10-26T03:04:44;8.23;;;2.00;;
41663;SDS011;27353;50.906;7.248;2022-10-26T03:07:11;4.72;;;1.80;;
41663;SDS011;27353;50.906;7.248;2022-10-26T03:09:37;6.63;;;2.00;;
41663;SDS011;27353;50.906;7.248;2022-10-26T03:12:02;6.05;;;2.17;;
41663;SDS011;27353;50.906;7.248;2022-10-26T03:14:28;4.97;;;1.70;;
41663;SDS011;27353;50.906;7.248;2022-10-26T03:16:54;4.50;;;2.95;;
41663;SDS011;27353;50.906;7.248;2022-10-26T03:19:19;9.10;;;2.55;;
41663;SDS011;27353;50.906;7.248;2022-10-26T03:21:45;12.45;;;3.50;;
41663;SDS011;27353;50.906;7.248;2022-10-26T03:24:10;7.07;;;2.08;;
41663;SDS011;27353;50.906;7.248;2022-10-26T03:26:36;11.65;;;3.17;;
41663;SDS011;27353;50.906;7.248;2022-10-26T03:29:02;5.40;;;2.67;;
41663;SDS011;27353;50.906;7.248;2022-10-26T03:31:28;4.13;;;2.28;;
41663;SDS011;27353;50.906;7.248;2022-10-26T03:33:53;6.63;;;1.92;;
41663;SDS011;27353;50.906;7.248;2022-10-26T03:36:19;8.77;;;2.75;;
41663;SDS011;27353;50.906;7.248;2022-10-26T03:38:44;6.50;;;2.22;;
41663;SDS011;27353;50.906;7.248;2022-10-26T03:41:10;5.82;;;2.17;;
41663;SDS011;27353;50.906;7.248;2022-10-26T03:43:35;6.95;;;2.15;;
41663;SDS011;27353;50.906;7.248;2022-10-26T03:46:01;11.95;;;3.42;;
41663;SDS011;27353;50.906;7.248;2022-10-26T03:48:26;3.47;;;1.80;;
41663;SDS011;27353;50.906;7.248;2022-10-26T03:50:55;7.15;;;2.75;;
41663;SDS011;27353;50.906;7.248;2022-10-26T03:53:23;3.92;;;1.77;;
41663;SDS011;27353;50.906;7.248;2022-10-26T03:55:49;6.75;;;1.92;;
41663;SDS011;27353;50.906;7.248;2022-10-26T03:58:14;4.15;;;1.95;;
41663;SDS011;27353;50.906;7.248;2022-10-26T04:00:40;5.53;;;1.50;;
41663;SDS011;27353;50.906;7.248;2022-10-26T04:03:05;3.90;;;2.22;;
41663;SDS011;27353;50.906;7.248;2022-10-26T04:05:31;5.72;;;2.22;;
41663;SDS011;27353;50.906;7.248;2022-10-26T04:07:57;6.03;;;1.90;;
41663;SDS011;27353;50.906;7.248;2022-10-26T04:10:25;10.98;;;4.07;;
41663;SDS011;27353;50.906;7.248;2022-10-26T04:12:52;4.80;;;2.10;;
41663;SDS011;27353;50.906;7.248;2022-10-26T04:15:18;6.32;;;2.10;;
41663;SDS011;27353;50.906;7.248;2022-10-26T04:17:44;4.53;;;1.88;;
41663;SDS011;27353;50.906;7.248;2022-10-26T04:20:10;10.48;;;2.92;;
41663;SDS011;27353;50.906;7.248;2022-10-26T04:22:36;9.10;;;1.90;;
41663;SDS011;27353;50.906;7.248;2022-10-26T04:25:03;7.90;;;3.28;;
41663;SDS011;27353;50.906;7.248;2022-10-26T04:27:29;8.05;;;2.88;;
41663;SDS011;27353;50.906;7.248;2022-10-26T04:29:55;6.68;;;2.53;;
41663;SDS011;27353;50.906;7.248;2022-10-26T04:32:21;5.88;;;2.72;;
41663;SDS011;27353;50.906;7.248;2022-10-26T04:34:46;3.13;;;2.08;;
41663;SDS011;27353;50.906;7.248;2022-10-26T04:37:12;2.83;;;1.95;;
41663;SDS011;27353;50.906;7.248;2022-10-26T04:39:37;6.63;;;1.83;;
41663;SDS011;27353;50.906;7.248;2022-10-26T04:42:03;6.53;;;2.10;;
41663;SDS011;27353;50.906;7.248;2022-10-26T04:44:28;4.05;;;1.73;;
41663;SDS011;27353;50.906;7.248;2022-10-26T04:46:54;4.20;;;1.88;;
41663;SDS011;27353;50.906;7.248;2022-10-26T04:49:20;9.63;;;1.77;;
41663;SDS011;27353;50.906;7.248;2022-10-26T04:51:45;5.38;;;1.73;;
41663;SDS011;27353;50.906;7.248;2022-10-26T04:54:11;3.28;;;2.70;;
41663;SDS011;27353;50.906;7.248;2022-10-26T04:56:36;4.55;;;1.88;;
41663;SDS011;27353;50.906;7.248;2022-10-26T04:59:02;7.35;;;1.52;;
41663;SDS011;27353;50.906;7.248;2022-10-26T05:01:29;4.75;;;1.70;;
41663;SDS011;27353;50.906;7.248;2022-10-26T05:03:55;6.45;;;2.25;;
41663;SDS011;27353;50.906;7.248;2022-10-26T05:06:21;6.10;;;1.65;;
41663;SDS011;27353;50.906;7.248;2022-10-26T05:08:46;4.88;;;1.98;;
41663;SDS011;27353;50.906;7.248;2022-10-26T05:11:12;3.25;;;1.75;;
41663;SDS011;27353;50.906;7.248;2022-10-26T05:13:38;7.43;;;1.90;;
41663;SDS011;27353;50.906;7.248;2022-10-26T05:16:04;3.90;;;1.45;;
41663;SDS011;27353;50.906;7.248;2022-10-26T05:18:30;6.40;;;2.33;;
41663;SDS011;27353;50.906;7.248;2022-10-26T05:20:55;5.35;;;1.85;;
41663;SDS011;27353;50.906;7.248;2022-10-26T05:23:21;5.93;;;1.80;;
41663;SDS011;27353;50.906;7.248;2022-10-26T05:25:47;2.30;;;1.30;;
41663;SDS011;27353;50.906;7.248;2022-10-26T05:28:13;7.88;;;1.70;;
41663;SDS011;27353;50.906;7.248;2022-10-26T05:30:41;2.97;;;1.40;;
41663;SDS011;27353;50.906;7.248;2022-10-26T05:33:08;7.93;;;2.95;;
41663;SDS011;27353;50.906;7.248;2022-10-26T05:35:35;5.20;;;1.02;;
41663;SDS011;27353;50.906;7.248;2022-10-26T05:38:12;2.20;;;1.35;;
41663;SDS011;27353;50.906;7.248;2022-10-26T05:40:45;1.98;;;1.20;;
41663;SDS011;27353;50.906;7.248;2022-10-26T05:43:11;5.05;;;1.77;;
41663;SDS011;27353;50.906;7.248;2022-10-26T05:45:38;2.30;;;1.40;;
41663;SDS011;27353;50.906;7.248;2022-10-26T05:48:03;9.32;;;1.50;;
41663;SDS011;27353;50.906;7.248;2022-10-26T05:50:29;1.63;;;1.02;;
41663;SDS011;27353;50.906;7.248;2022-10-26T05:52:55;4.35;;;1.10;;
41663;SDS011;27353;50.906;7.248;2022-10-26T05:55:20;4.55;;;1.48;;
41663;SDS011;27353;50.906;7.248;2022-10-26T05:57:46;4.97;;;1.58;;
41663;SDS011;27353;50.906;7.248;2022-10-26T06:00:16;2.55;;;1.40;;
41663;SDS011;27353;50.906;7.248;2022-10-26T06:02:51;7.88;;;1.77;;
41663;SDS011;27353;50.906;7.248;2022-10-26T06:05:31;5.15;;;1.45;;
41663;SDS011;27353;50.906;7.248;2022-10-26T06:08:18;2.88;;;1.30;;
41663;SDS011;27353;50.906;7.248;2022-10-26T06:10:45;3.40;;;1.40;;
41663;SDS011;27353;50.906;7.248;2022-10-26T06:13:12;4.50;;;1.40;;
41663;SDS011;27353;50.906;7.248;2022-10-26T06:15:50;3.35;;;1.45;;
41663;SDS011;27353;50.906;7.248;2022-10-26T06:21:22;1.70;;;1.42;;
41663;SDS011;27353;50.906;7.248;2022-10-26T06:32:01;5.50;;;1.65;;
41663;SDS011;27353;50.906;7.248;2022-10-26T06:34:28;4.35;;;1.45;;
41663;SDS011;27353;50.906;7.248;2022-10-26T06:36:59;2.92;;;1.30;;
41663;SDS011;27353;50.906;7.248;2022-10-26T06:39:29;30.98;;;2.80;;
41663;SDS011;27353;50.906;7.248;2022-10-26T06:41:59;4.03;;;1.30;;
41663;SDS011;27353;50.906;7.248;2022-10-26T06:44:25;3.13;;;1.40;;
41663;SDS011;27353;50.906;7.248;2022-10-26T06:47:08;4.15;;;2.20;;
41663;SDS011;27353;50.906;7.248;2022-10-26T06:52:26;10.73;;;2.33;;
41663;SDS011;27353;50.906;7.248;2022-10-26T06:55:11;6.15;;;1.92;;
41663;SDS011;27353;50.906;7.248;2022-10-26T06:57:38;5.60;;;1.15;;
41663;SDS011;27353;50.906;7.248;2022-10-26T07:00:13;2.90;;;1.15;;
41663;SDS011;27353;50.906;7.248;2022-10-26T07:02:48;3.15;;;2.17;;
41663;SDS011;27353;50.906;7.248;2022-10-26T07:05:13;3.50;;;2.30;;
41663;SDS011;27353;50.906;7.248;2022-10-26T07:07:40;4.55;;;1.63;;
41663;SDS011;27353;50.906;7.248;2022-10-26T07:10:08;8.27;;;1.52;;
41663;SDS011;27353;50.906;7.248;2022-10-26T07:12:34;4.13;;;1.77;;
41663;SDS011;27353;50.906;7.248;2022-10-26T07:15:00;2.97;;;1.52;;
41663;SDS011;27353;50.906;7.248;2022-10-26T07:17:26;3.40;;;1.73;;
41663;SDS011;27353;50.906;7.248;2022-10-26T07:19:53;3.58;;;1.33;;
41663;SDS011;27353;50.906;7.248;2022-10-26T07:22:19;3.38;;;1.60;;
41663;SDS011;27353;50.906;7.248;2022-10-26T07:24:44;6.85;;;1.77;;
41663;SDS011;27353;50.906;7.248;2022-10-26T07:27:14;3.20;;;1.40;;
41663;SDS011;27353;50.906;7.248;2022-10-26T07:29:40;4.32;;;1.75;;
41663;SDS011;27353;50.906;7.248;2022-10-26T07:32:05;2.80;;;1.60;;
41663;SDS011;27353;50.906;7.248;2022-10-26T07:34:31;8.90;;;2.00;;
41663;SDS011;27353;50.906;7.248;2022-10-26T07:37:00;6.97;;;2.00;;
41663;SDS011;27353;50.906;7.248;2022-10-26T07:39:25;5.13;;;1.67;;
41663;SDS011;27353;50.906;7.248;2022-10-26T07:41:51;6.03;;;1.50;;
41663;SDS011;27353;50.906;7.248;2022-10-26T07:44:17;2.67;;;2.40;;
41663;SDS011;27353;50.906;7.248;2022-10-26T07:46:43;9.40;;;3.30;;
41663;SDS011;27353;50.906;7.248;2022-10-26T07:49:09;4.00;;;2.45;;
41663;SDS011;27353;50.906;7.248;2022-10-26T07:51:35;5.03;;;2.20;;
41663;SDS011;27353;50.906;7.248;2022-10-26T07:54:01;5.30;;;2.13;;
41663;SDS011;27353;50.906;7.248;2022-10-26T07:56:27;6.85;;;2.03;;
41663;SDS011;27353;50.906;7.248;2022-10-26T07:58:53;3.95;;;2.63;;
41663;SDS011;27353;50.906;7.248;2022-10-26T08:01:19;10.70;;;2.55;;
41663;SDS011;27353;50.906;7.248;2022-10-26T08:03:46;4.57;;;2.47;;
41663;SDS011;27353;50.906;7.248;2022-10-26T08:06:12;5.63;;;2.42;;
41663;SDS011;27353;50.906;7.248;2022-10-26T08:08:38;10.73;;;2.50;;
41663;SDS011;27353;50.906;7.248;2022-10-26T08:11:04;6.72;;;2.17;;
41663;SDS011;27353;50.906;7.248;2022-10-26T08:13:30;3.15;;;1.48;;
41663;SDS011;27353;50.906;7.248;2022-10-26T08:15:59;2.72;;;1.60;;
41663;SDS011;27353;50.906;7.248;2022-10-26T08:18:26;4.00;;;2.17;;
41663;SDS011;27353;50.906;7.248;2022-10-26T08:20:52;5.95;;;2.10;;
41663;SDS011;27353;50.906;7.248;2022-10-26T08:23:18;6.03;;;1.80;;
41663;SDS011;27353;50.906;7.248;2022-10-26T08:25:44;4.45;;;1.38;;
41663;SDS011;27353;50.906;7.248;2022-10-26T08:28:10;3.35;;;1.65;;
41663;SDS011;27353;50.906;7.248;2022-10-26T08:30:35;3.67;;;1.23;;
41663;SDS011;27353;50.906;7.248;2022-10-26T08:33:02;3.67;;;1.38;;
41663;SDS011;27353;50.906;7.248;2022-10-26T08:35:29;3.78;;;1.48;;
41663;SDS011;27353;50.906;7.248;2022-10-26T08:37:55;2.70;;;1.10;;
41663;SDS011;27353;50.906;7.248;2022-10-26T08:40:21;4.15;;;1.67;;
41663;SDS011;27353;50.906;7.248;2022-10-26T08:42:52;6.50;;;2.38;;
41663;SDS011;27353;50.906;7.248;2022-10-26T08:45:40;5.80;;;1.42;;
41663;SDS011;27353;50.906;7.248;2022-10-26T08:48:22;3.30;;;1.50;;
41663;SDS011;27353;50.906;7.248;2022-10-26T08:50:52;4.07;;;1.40;;
41663;SDS011;27353;50.906;7.248;2022-10-26T08:56:11;6.60;;;2.72;;
41663;SDS011;27353;50.906;7.248;2022-10-26T09:01:29;2.95;;;1.35;;
41663;SDS011;27353;50.906;7.248;2022-10-26T09:03:56;9.18;;;1.98;;
41663;SDS011;27353;50.906;7.248;2022-10-26T09:17:26;4.63;;;1.45;;
41663;SDS011;27353;50.906;7.248;2022-10-26T09:22:45;6.03;;;1.73;;
41663;SDS011;27353;50.906;7.248;2022-10-26T09:25:37;6.18;;;1.60;;
41663;SDS011;27353;50.906;7.248;2022-10-26T09:28:04;5.53;;;1.55;;
41663;SDS011;27353;50.906;7.248;2022-10-26T09:30:36;7.50;;;2.15;;
41663;SDS011;27353;50.906;7.248;2022-10-26T09:33:09;6.20;;;2.00;;
41663;SDS011;27353;50.906;7.248;2022-10-26T09:35:44;2.53;;;2.05;;
41663;SDS011;27353;50.906;7.248;2022-10-26T09:43:41;6.13;;;2.47;;
41663;SDS011;27353;50.906;7.248;2022-10-26T09:46:09;4.40;;;1.80;;
41663;SDS011;27353;50.906;7.248;2022-10-26T09:48:45;5.22;;;2.15;;
41663;SDS011;27353;50.906;7.248;2022-10-26T09:51:15;3.20;;;1.58;;
41663;SDS011;27353;50.906;7.248;2022-10-26T09:53:42;12.00;;;2.17;;
41663;SDS011;27353;50.906;7.248;2022-10-26T10:18:53;4.82;;;2.20;;
41663;SDS011;27353;50.906;7.248;2022-10-26T10:24:02;11.60;;;2.83;;
41663;SDS011;27353;50.906;7.248;2022-10-26T10:26:54;5.60;;;1.80;;
41663;SDS011;27353;50.906;7.248;2022-10-26T10:29:25;5.57;;;1.75;;
41663;SDS011;27353;50.906;7.248;2022-10-26T10:31:54;5.03;;;1.45;;
41663;SDS011;27353;50.906;7.248;2022-10-26T10:34:21;2.97;;;1.20;;
41663;SDS011;27353;50.906;7.248;2022-10-26T10:36:47;7.75;;;2.22;;
41663;SDS011;27353;50.906;7.248;2022-10-26T10:39:24;7.53;;;3.15;;
41663;SDS011;27353;50.906;7.248;2022-10-26T10:42:02;3.45;;;1.40;;
41663;SDS011;27353;50.906;7.248;2022-10-26T10:44:29;7.60;;;2.22;;
41663;SDS011;27353;50.906;7.248;2022-10-26T10:47:03;5.30;;;1.73;;
41663;SDS011;27353;50.906;7.248;2022-10-26T10:49:30;4.03;;;1.45;;
41663;SDS011;27353;50.906;7.248;2022-10-26T10:51:57;5.00;;;2.13;;
41663;SDS011;27353;50.906;7.248;2022-10-26T11:08:40;4.20;;;1.55;;
41663;SDS011;27353;50.906;7.248;2022-10-26T11:11:25;6.60;;;2.80;;
41663;SDS011;27353;50.906;7.248;2022-10-26T11:13:58;5.60;;;1.60;;
41663;SDS011;27353;50.906;7.248;2022-10-26T11:16:35;3.97;;;1.95;;
41663;SDS011;27353;50.906;7.248;2022-10-26T11:21:50;5.75;;;1.58;;
41663;SDS011;27353;50.906;7.248;2022-10-26T11:27:01;6.32;;;1.63;;
41663;SDS011;27353;50.906;7.248;2022-10-26T11:29:39;5.40;;;1.83;;
41663;SDS011;27353;50.906;7.248;2022-10-26T11:32:26;3.97;;;1.30;;
41663;SDS011;27353;50.906;7.248;2022-10-26T11:38:00;3.72;;;1.77;;
41663;SDS011;27353;50.906;7.248;2022-10-26T11:46:04;4.07;;;2.00;;
41663;SDS011;27353;50.906;7.248;2022-10-26T11:54:02;6.50;;;2.03;;
41663;SDS011;27353;50.906;7.248;2022-10-26T11:56:35;4.97;;;1.88;;
41663;SDS011;27353;50.906;7.248;2022-10-26T11:59:13;4.93;;;2.13;;
41663;SDS011;27353;50.906;7.248;2022-10-26T12:01:45;3.97;;;2.13;;
41663;SDS011;27353;50.906;7.248;2022-10-26T12:04:13;6.30;;;1.77;;
41663;SDS011;27353;50.906;7.248;2022-10-26T12:06:39;4.53;;;1.88;;
41663;SDS011;27353;50.906;7.248;2022-10-26T12:09:15;2.13;;;1.13;;
41663;SDS011;27353;50.906;7.248;2022-10-26T12:19:46;3.63;;;1.15;;
41663;SDS011;27353;50.906;7.248;2022-10-26T12:22:16;2.60;;;1.17;;
41663;SDS011;27353;50.906;7.248;2022-10-26T12:24:44;3.60;;;1.30;;
41663;SDS011;27353;50.906;7.248;2022-10-26T12:48:44;4.90;;;1.65;;
41663;SDS011;27353;50.906;7.248;2022-10-26T12:56:24;3.97;;;1.20;;
41663;SDS011;27353;50.906;7.248;2022-10-26T13:05:21;8.07;;;1.23;;
41663;SDS011;27353;50.906;7.248;2022-10-26T13:08:10;4.50;;;1.48;;
41663;SDS011;27353;50.906;7.248;2022-10-26T13:10:38;5.35;;;1.58;;
41663;SDS011;27353;50.906;7.248;2022-10-26T13:13:17;2.92;;;1.42;;
41663;SDS011;27353;50.906;7.248;2022-10-26T13:15:57;1.67;;;1.15;;
41663;SDS011;27353;50.906;7.248;2022-10-26T13:18:24;4.22;;;1.15;;
41663;SDS011;27353;50.906;7.248;2022-10-26T13:20:51;4.10;;;0.90;;
41663;SDS011;27353;50.906;7.248;2022-10-26T13:23:36;3.08;;;1.30;;
41663;SDS011;27353;50.906;7.248;2022-10-26T13:26:08;2.05;;;0.90;;
41663;SDS011;27353;50.906;7.248;2022-10-26T13:28:49;8.02;;;1.08;;
41663;SDS011;27353;50.906;7.248;2022-10-26T13:33:56;3.90;;;0.85;;
41663;SDS011;27353;50.906;7.248;2022-10-26T13:39:13;1.80;;;0.88;;
41663;SDS011;27353;50.906;7.248;2022-10-26T13:41:42;2.83;;;1.02;;
41663;SDS011;27353;50.906;7.248;2022-10-26T13:44:15;2.08;;;0.63;;
41663;SDS011;27353;50.906;7.248;2022-10-26T13:46:50;4.82;;;1.92;;
41663;SDS011;27353;50.906;7.248;2022-10-26T13:49:29;2.53;;;1.00;;
41663;SDS011;27353;50.906;7.248;2022-10-26T13:52:02;1.63;;;1.05;;
41663;SDS011;27353;50.906;7.248;2022-10-26T13:54:33;3.53;;;1.15;;
41663;SDS011;27353;50.906;7.248;2022-10-26T13:59:56;3.20;;;1.00;;
41663;SDS011;27353;50.906;7.248;2022-10-26T14:04:57;0.90;;;0.60;;
41663;SDS011;27353;50.906;7.248;2022-10-26T14:07:27;1.90;;;0.77;;
41663;SDS011;27353;50.906;7.248;2022-10-26T14:12:58;1.58;;;0.85;;
41663;SDS011;27353;50.906;7.248;2022-10-26T14:15:26;3.75;;;1.40;;
41663;SDS011;27353;50.906;7.248;2022-10-26T14:17:57;5.88;;;0.65;;
41663;SDS011;27353;50.906;7.248;2022-10-26T14:20:25;1.58;;;0.85;;
41663;SDS011;27353;50.906;7.248;2022-10-26T14:22:52;3.42;;;0.57;;
41663;SDS011;27353;50.906;7.248;2022-10-26T14:25:20;1.80;;;0.30;;
41663;SDS011;27353;50.906;7.248;2022-10-26T14:27:49;1.63;;;0.50;;
41663;SDS011;27353;50.906;7.248;2022-10-26T14:30:26;3.05;;;1.25;;
41663;SDS011;27353;50.906;7.248;2022-10-26T14:32:54;1.95;;;0.40;;
41663;SDS011;27353;50.906;7.248;2022-10-26T14:35:24;2.25;;;0.80;;
41663;SDS011;27353;50.906;7.248;2022-10-26T14:38:15;3.53;;;0.63;;
41663;SDS011;27353;50.906;7.248;2022-10-26T14:40:54;4.07;;;0.65;;
41663;SDS011;27353;50.906;7.248;2022-10-26T14:43:21;1.63;;;0.98;;
41663;SDS011;27353;50.906;7.248;2022-10-26T14:45:49;0.90;;;0.50;;
41663;SDS011;27353;50.906;7.248;2022-10-26T14:48:20;1.80;;;0.50;;
41663;SDS011;27353;50.906;7.248;2022-10-26T14:53:40;3.00;;;0.60;;
41663;SDS011;27353;50.906;7.248;2022-10-26T14:56:38;2.05;;;0.75;;
41663;SDS011;27353;50.906;7.248;2022-10-26T14:59:11;1.05;;;0.63;;
41663;SDS011;27353;50.906;7.248;2022-10-26T15:01:52;2.55;;;0.60;;
41663;SDS011;27353;50.906;7.248;2022-10-26T15:04:32;1.60;;;0.63;;
41663;SDS011;27353;50.906;7.248;2022-10-26T15:09:37;5.30;;;1.10;;
41663;SDS011;27353;50.906;7.248;2022-10-26T15:12:06;7.03;;;1.02;;
41663;SDS011;27353;50.906;7.248;2022-10-26T15:14:53;6.25;;;2.00;;
41663;SDS011;27353;50.906;7.248;2022-10-26T15:17:24;1.88;;;0.52;;
41663;SDS011;27353;50.906;7.248;2022-10-26T15:19:56;2.67;;;0.60;;
41663;SDS011;27353;50.906;7.248;2022-10-26T15:22:26;3.65;;;0.63;;
41663;SDS011;27353;50.906;7.248;2022-10-26T15:24:53;4.47;;;0.60;;
41663;SDS011;27353;50.906;7.248;2022-10-26T15:27:22;3.60;;;0.88;;
41663;SDS011;27353;50.906;7.248;2022-10-26T15:29:50;1.90;;;0.93;;
41663;SDS011;27353;50.906;7.248;2022-10-26T15:32:31;4.88;;;1.77;;
41663;SDS011;27353;50.906;7.248;2022-10-26T15:35:09;5.55;;;2.08;;
41663;SDS011;27353;50.906;7.248;2022-10-26T15:37:39;2.97;;;1.40;;
41663;SDS011;27353;50.906;7.248;2022-10-26T15:40:05;4.15;;;1.73;;
41663;SDS011;27353;50.906;7.248;2022-10-26T15:42:31;4.40;;;1.20;;
41663;SDS011;27353;50.906;7.248;2022-10-26T15:45:02;1.42;;;0.90;;
41663;SDS011;27353;50.906;7.248;2022-10-26T15:47:32;3.60;;;0.90;;
41663;SDS011;27353;50.906;7.248;2022-10-26T15:49:58;4.50;;;0.73;;
41663;SDS011;27353;50.906;7.248;2022-10-26T15:52:24;4.40;;;0.93;;
41663;SDS011;27353;50.906;7.248;2022-10-26T15:54:49;8.98;;;2.05;;
41663;SDS011;27353;50.906;7.248;2022-10-26T15:57:15;4.30;;;1.45;;
41663;SDS011;27353;50.906;7.248;2022-10-26T15:59:40;5.28;;;1.33;;
41663;SDS011;27353;50.906;7.248;2022-10-26T16:02:15;10.60;;;2.05;;
41663;SDS011;27353;50.906;7.248;2022-10-26T16:04:41;2.67;;;1.50;;
41663;SDS011;27353;50.906;7.248;2022-10-26T16:07:10;5.05;;;2.28;;
41663;SDS011;27353;50.906;7.248;2022-10-26T16:09:37;3.75;;;2.03;;
41663;SDS011;27353;50.906;7.248;2022-10-26T16:12:04;6.93;;;2.95;;
41663;SDS011;27353;50.906;7.248;2022-10-26T16:14:32;4.55;;;1.95;;
41663;SDS011;27353;50.906;7.248;2022-10-26T16:16:57;12.52;;;2.15;;
41663;SDS011;27353;50.906;7.248;2022-10-26T16:19:23;9.80;;;1.90;;
41663;SDS011;27353;50.906;7.248;2022-10-26T16:21:52;3.75;;;1.60;;
41663;SDS011;27353;50.906;7.248;2022-10-26T16:24:17;2.47;;;1.02;;
41663;SDS011;27353;50.906;7.248;2022-10-26T16:26:43;2.53;;;1.73;;
41663;SDS011;27353;50.906;7.248;2022-10-26T16:29:09;2.83;;;2.00;;
41663;SDS011;27353;50.906;7.248;2022-10-26T16:31:35;2.40;;;2.20;;
41663;SDS011;27353;50.906;7.248;2022-10-26T16:34:00;4.43;;;1.77;;
41663;SDS011;27353;50.906;7.248;2022-10-26T16:36:26;5.95;;;1.80;;
41663;SDS011;27353;50.906;7.248;2022-10-26T16:38:52;7.50;;;2.00;;
41663;SDS011;27353;50.906;7.248;2022-10-26T16:41:17;6.18;;;1.80;;
41663;SDS011;27353;50.906;7.248;2022-10-26T16:43:43;3.28;;;1.17;;
41663;SDS011;27353;50.906;7.248;2022-10-26T16:46:11;3.38;;;1.38;;
41663;SDS011;27353;50.906;7.248;2022-10-26T16:48:39;3.08;;;1.45;;
41663;SDS011;27353;50.906;7.248;2022-10-26T16:51:07;3.60;;;1.42;;
41663;SDS011;27353;50.906;7.248;2022-10-26T16:53:33;7.85;;;1.90;;
41663;SDS011;27353;50.906;7.248;2022-10-26T16:56:03;8.25;;;2.20;;
41663;SDS011;27353;50.906;7.248;2022-10-26T16:58:33;13.93;;;8.05;;
41663;SDS011;27353;50.906;7.248;2022-10-26T17:00:59;13.55;;;8.68;;
41663;SDS011;27353;50.906;7.248;2022-10-26T17:03:24;13.55;;;7.78;;
41663;SDS011;27353;50.906;7.248;2022-10-26T17:06:08;12.07;;;7.38;;
41663;SDS011;27353;50.906;7.248;2022-10-26T17:08:34;9.45;;;3.35;;
41663;SDS011;27353;50.906;7.248;2022-10-26T17:11:05;3.47;;;2.63;;
41663;SDS011;27353;50.906;7.248;2022-10-26T17:13:32;3.72;;;2.97;;
41663;SDS011;27353;50.906;7.248;2022-10-26T17:16:06;2.80;;;2.35;;
41663;SDS011;27353;50.906;7.248;2022-10-26T17:18:42;4.05;;;2.58;;
41663;SDS011;27353;50.906;7.248;2022-10-26T17:21:09;3.47;;;2.00;;
41663;SDS011;27353;50.906;7.248;2022-10-26T17:23:35;4.15;;;1.88;;
41663;SDS011;27353;50.906;7.248;2022-10-26T17:26:02;3.80;;;1.90;;
41663;SDS011;27353;50.906;7.248;2022-10-26T17:28:32;4.78;;;1.60;;
41663;SDS011;27353;50.906;7.248;2022-10-26T17:31:05;5.53;;;2.60;;
41663;SDS011;27353;50.906;7.248;2022-10-26T17:33:33;3.38;;;1.90;;
41663;SDS011;27353;50.906;7.248;2022-10-26T17:36:00;5.78;;;2.28;;
41663;SDS011;27353;50.906;7.248;2022-10-26T17:38:29;6.32;;;1.90;;
41663;SDS011;27353;50.906;7.248;2022-10-26T17:43:23;2.55;;;1.55;;
41663;SDS011;27353;50.906;7.248;2022-10-26T17:45:49;4.88;;;2.17;;
41663;SDS011;27353;50.906;7.248;2022-10-26T17:48:14;6.50;;;2.88;;
41663;SDS011;27353;50.906;7.248;2022-10-26T17:50:40;6.40;;;2.83;;
41663;SDS011;27353;50.906;7.248;2022-10-26T17:53:06;4.95;;;2.53;;
41663;SDS011;27353;50.906;7.248;2022-10-26T17:55:31;4.28;;;1.77;;
41663;SDS011;27353;50.906;7.248;2022-10-26T17:57:57;3.70;;;1.63;;
41663;SDS011;27353;50.906;7.248;2022-10-26T18:00:22;2.95;;;1.75;;
41663;SDS011;27353;50.906;7.248;2022-10-26T18:02:48;6.45;;;2.10;;